Latest Weather Observations for Sheffield

IDT60801

Issued at 3:31 pm EDT Thursday 13 December 2018 (issued every 10 minutes, with the page automatically refreshed every 10 minutes)

About weather observations | Map of weather stations | Latest weather observations for TAS | Other Formats
Station Details ID: 091291 Name: SHEFFIELD SCHOOL FARM Lat: -41.39 Lon: 146.32 Height: 294.2 m
Data from the previous 72 hours. | See also: Recent months at Sheffield
Date/Time
EDT
Temp
°C
App
Temp
°C
Dew
Point
°C
Rel
Hum
%
Delta-T
°C
Wind Press
QNH
hPa
Press
MSL
hPa
Rain since
9am
mm
Dir  Spd
km/h
Gust
km/h
Spd
kts
Gust
kts
13/03:30pm 20.1 17.8 16.7 81 2.1 ESE 24 33 13 18 1003.5 1003.1 1.8
13/03:00pm 17.5 16.0 16.7 95 0.5 ESE 20 30 11 16 1003.6 1003.2 1.8
13/02:30pm 17.1 16.2 16.8 98 0.2 ESE 17 24 9 13 1003.7 1003.3 1.6
13/02:00pm 16.9 15.5 16.6 98 0.2 SE 19 28 10 15 1003.6 1003.2 1.2
13/01:30pm 16.9 15.7 16.1 95 0.5 ESE 17 22 9 12 1003.5 1003.1 0.8
13/01:00pm 17.0 15.2 16.0 94 0.6 ESE 20 28 11 15 1003.2 1002.8 0.6
13/12:30pm 17.0 15.1 15.3 90 1.0 ESE 19 24 10 13 1003.6 1003.2 0.2
13/12:00pm 17.3 14.6 14.6 84 1.6 ESE 22 30 12 16 1003.3 1002.9 0.2
13/11:30am 17.5 15.1 14.4 82 1.8 ESE 20 28 11 15 1003.0 1002.6 0.2
13/11:00am 17.4 15.1 14.1 81 1.9 ESE 19 24 10 13 1003.0 1002.6 0.2
13/10:30am 17.0 13.9 13.5 80 2.0 SE 22 30 12 16 1003.0 1002.6 0.2
13/10:00am 16.6 12.8 13.5 82 1.8 SE 26 33 14 18 1003.0 1002.6 0.2
13/09:30am 15.4 12.8 13.9 91 0.9 SE 20 32 11 17 1003.2 1002.8 0.2
13/09:00am 14.8 11.5 14.0 95 0.5 SE 24 32 13 17 1003.3 1002.9 0.2
13/08:30am 14.7 11.7 13.7 94 0.6 ESE 22 32 12 17 1003.3 1002.9 0.2
13/08:00am 14.9 13.2 13.6 92 0.7 ESE 15 20 8 11 1003.5 1003.1 0.0
13/07:30am 14.8 13.4 13.3 91 0.8 SE 13 17 7 9 1003.6 1003.2 0.0
13/07:00am 14.9 13.1 13.3 90 0.9 SE 15 19 8 10 1003.9 1003.5 0.0
13/06:30am 15.4 14.1 12.5 83 1.6 ESE 11 20 6 11 1004.1 1003.7 0.0
13/06:00am 15.5 13.0 12.3 81 1.8 SE 17 20 9 11 1003.8 1003.4 0.0
13/05:30am 15.4 12.9 12.2 81 1.8 ESE 17 22 9 12 1003.8 1003.4 0.0
13/05:00am 15.3 13.9 12.1 81 1.8 ESE 11 17 6 9 1004.1 1003.7 0.0
13/04:30am 15.2 13.8 12.2 82 1.7 ESE 11 15 6 8 1004.1 1003.7 0.0
13/04:00am 15.2 12.7 12.2 82 1.7 SE 17 22 9 12 1004.2 1003.8 0.0
13/03:30am 14.9 12.3 11.9 82 1.6 SE 17 20 9 11 1004.6 1004.3 0.0
13/03:00am 14.9 12.7 12.2 84 1.5 SE 15 19 8 10 1005.4 1005.0 0.0
13/02:30am 14.8 12.7 12.3 85 1.4 SE 15 19 8 10 1006.0 1005.6 0.0
13/02:00am 14.8 13.7 12.1 84 1.5 ESE 9 15 5 8 1006.6 1006.2 0.0
13/01:30am 14.9 13.5 12.2 84 1.5 SE 11 15 6 8 1006.8 1006.4 0.0
13/01:00am 14.7 12.5 12.0 84 1.5 SE 15 19 8 10 1006.9 1006.5 0.0
13/12:30am 15.0 13.6 12.3 84 1.5 ESE 11 13 6 7 1007.6 1007.3 0.0
13/12:00am 14.9 13.5 12.2 84 1.5 SE 11 15 6 8 1008.0 1007.7 0.0
 
Date/Time
EDT
Temp
°C
App
Temp
°C
Dew
Point
°C
Rel
Hum
%
Delta-T
°C
Wind Press
QNH
hPa
Press
MSL
hPa
Rain since
9am
mm
Dir  Spd
km/h
Gust
km/h
Spd
kts
Gust
kts
12/11:30pm 14.8 13.4 12.1 84 1.5 ESE 11 13 6 7 1008.1 1007.8 0.0
12/11:00pm 14.9 13.8 12.0 83 1.6 ESE 9 11 5 6 1008.4 1008.0 0.0
12/10:30pm 15.3 13.8 11.9 80 1.9 ENE 11 17 6 9 1008.8 1008.4 0.0
12/10:00pm 15.5 14.3 11.7 78 2.1 ENE 9 15 5 8 1009.0 1008.6 0.0
12/09:30pm 16.0 14.1 11.8 76 2.3 NE 13 20 7 11 1009.1 1008.7 0.0
12/09:00pm 16.2 14.7 12.0 76 2.3 NNE 11 19 6 10 1009.3 1008.9 0.0
12/08:30pm 16.4 14.6 12.0 75 2.4 N 13 19 7 10 1009.2 1008.8 0.0
12/08:00pm 16.6 14.8 12.0 74 2.6 NNE 13 20 7 11 1008.8 1008.4 0.0
12/07:30pm 16.9 15.8 12.0 73 2.7 NNE 9 15 5 8 1008.8 1008.4 0.0
12/07:00pm 17.3 15.1 12.0 71 3.0 N 15 22 8 12 1008.9 1008.5 0.0
12/06:30pm 17.6 15.1 12.3 71 3.0 N 17 24 9 13 1009.3 1008.9 0.0
12/06:00pm 17.8 15.0 12.5 71 3.0 NNW 19 28 10 15 1009.5 1009.1 0.0
12/05:30pm 18.9 16.3 13.1 69 3.3 NNW 19 28 10 15 1009.8 1009.4 0.0
12/05:00pm 19.6 17.6 14.0 70 3.3 NW 17 24 9 13 1009.9 1009.5 0.0
12/04:30pm 19.0 16.5 13.4 70 3.2 NW 19 26 10 14 1010.4 1010.1 0.0
12/04:00pm 19.4 17.1 13.1 67 3.6 NNW 17 26 9 14 1010.6 1010.3 0.0
12/03:30pm 19.8 18.0 13.3 66 3.8 NNE 15 22 8 12 1011.1 1010.8 0.0
12/03:00pm 18.6 16.3 11.9 65 3.8 NE 15 22 8 12 1011.7 1011.4 0.0
12/02:30pm 19.0 16.2 11.3 61 4.3 NNE 17 28 9 15 1012.2 1011.8 0.0
12/02:00pm 19.9 17.3 11.9 60 4.5 N 17 26 9 14 1012.5 1012.1 0.0
12/01:30pm 19.8 16.6 11.3 58 4.7 N 19 30 10 16 1013.0 1012.6 0.0
12/01:00pm 18.9 15.7 11.2 61 4.3 N 19 28 10 15 1013.4 1013.1 0.0
12/12:30pm 18.4 17.1 11.2 63 4.0 NNE 9 13 5 7 1013.8 1013.5 0.0
12/12:00pm 17.9 15.4 9.8 59 4.3 NE 13 26 7 14 1014.1 1013.8 0.0
12/11:30am 18.3 16.1 10.7 61 4.2 NNE 13 24 7 13 1014.2 1013.9 0.0
12/11:00am 17.5 14.7 10.1 62 4.0 E 15 22 8 12 1014.4 1014.1 0.0
12/10:30am 16.8 14.7 9.7 63 3.8 E 11 17 6 9 1014.9 1014.6 0.0
12/10:00am 16.4 14.7 10.0 66 3.4 E 9 17 5 9 1015.3 1015.0 0.0
12/09:30am 15.3 13.2 9.7 69 2.9 E 11 19 6 10 1015.8 1015.4 0.0
12/09:00am 15.2 12.9 10.4 73 2.6 ENE 13 20 7 11 1016.0 1015.6 0.0
12/08:30am 14.2 11.6 9.2 72 2.6 ENE 13 20 7 11 1015.9 1015.5 0.0
12/08:00am 14.6 12.8 9.6 72 2.6 ENE 9 13 5 7 1016.1 1015.7 0.0
12/07:30am 13.0 11.7 10.0 82 1.6 E 7 9 4 5 1016.0 1015.6 0.0
12/07:00am 11.6 9.9 10.0 90 0.8 E 9 11 5 6 1016.0 1015.6 0.0
12/06:30am 11.8 10.6 10.2 90 0.8 E 7 13 4 7 1016.1 1015.7 0.0
12/06:00am 11.8 10.4 11.0 95 0.4 E 9 11 5 6 1016.2 1015.9 0.0
12/05:30am 11.4 10.4 11.1 98 0.2 ESE 7 9 4 5 1016.3 1016.0 0.0
12/05:00am 11.0 9.9 10.7 98 0.2 E 7 11 4 6 1016.5 1016.2 0.0
12/04:30am 10.1 8.9 9.5 96 0.3 SE 6 7 3 4 1016.7 1016.4 0.0
12/04:00am 11.2 11.0 10.4 95 0.4 SE 2 4 1 2 1017.0 1016.7 0.0
12/03:30am 10.8 9.6 9.7 93 0.6 SE 6 7 3 4 1017.2 1016.9 0.0
12/03:00am 11.6 10.5 9.9 89 0.9 SE 6 6 3 3 1017.5 1017.2 0.0
12/02:30am 12.2 10.9 10.1 87 1.1 NNE 7 13 4 7 1018.1 1017.8 0.0
12/02:00am 12.6 11.1 10.5 87 1.1 NE 9 15 5 8 1018.5 1018.2 0.0
12/01:30am 13.0 12.5 10.7 86 1.2 NE 4 9 2 5 1018.7 1018.4 0.0
12/01:00am 13.1 12.5 10.5 84 1.4 E 4 7 2 4 1019.0 1018.8 0.0
12/12:30am 13.3 12.7 10.3 82 1.6 N 4 7 2 4 1019.3 1019.0 0.0
12/12:00am 13.7 12.5 9.7 77 2.1 NNE 6 7 3 4 1019.4 1019.1 0.0
 
Date/Time
EDT
Temp
°C
App
Temp
°C
Dew
Point
°C
Rel
Hum
%
Delta-T
°C
Wind Press
QNH
hPa
Press
MSL
hPa
Rain since
9am
mm
Dir  Spd
km/h
Gust
km/h
Spd
kts
Gust
kts
11/11:30pm 13.7 12.5 9.6 76 2.1 N 6 11 3 6 1019.6 1019.3 0.0
11/11:00pm 13.8 12.6 9.6 76 2.2 N 6 11 3 6 1019.6 1019.3 0.0
11/10:30pm 13.8 12.7 10.6 81 1.7 N 7 9 4 5 1019.8 1019.5 0.0
11/10:00pm 13.6 12.6 11.1 85 1.3 N 7 9 4 5 1019.8 1019.5 0.0
11/09:30pm 13.7 12.9 10.9 83 1.5 N 6 7 3 4 1019.4 1019.1 0.0
11/09:00pm 14.1 13.5 10.3 78 2.0 NNW 4 6 2 3 1019.2 1018.9 0.0
11/08:30pm 14.6 13.6 10.4 76 2.2 N 6 7 3 4 1018.9 1018.6 0.0
11/08:00pm 14.8 13.7 10.6 76 2.2 NNW 7 9 4 5 1019.0 1018.8 0.0
11/07:30pm 15.9 13.9 10.2 69 3.0 N 11 15 6 8 1018.7 1018.4 0.0
11/07:00pm 16.4 14.9 10.7 69 3.1 NNW 9 11 5 6 1018.6 1018.3 0.0
11/06:30pm 16.3 14.0 10.6 69 3.1 NNW 13 17 7 9 1018.7 1018.4 0.0
11/06:00pm 16.7 14.9 10.8 68 3.2 NNW 11 17 6 9 1018.7 1018.4 0.0
11/05:30pm 16.8 14.7 11.3 70 3.0 N 13 19 7 10 1018.7 1018.4 0.0
11/05:00pm 16.7 14.2 11.0 69 3.1 NNW 15 20 8 11 1019.0 1018.8 0.0
11/04:30pm 17.2 14.5 11.7 70 3.0 N 17 24 9 13 1019.3 1019.0 0.0
11/04:00pm 17.2 14.4 11.2 68 3.3 NNW 17 22 9 12 1019.5 1019.2 0.0
11/03:30pm 17.3 15.2 11.3 68 3.3 N 13 17 7 9 1019.6 1019.3 0.0
11/03:00pm 17.3 15.0 11.6 69 3.1 N 15 20 8 11 1019.8 1019.5 0.0
11/02:30pm 17.4 15.8 11.4 68 3.3 NW 11 15 6 8 1019.8 1019.5 0.0
11/02:00pm 17.2 15.4 11.0 67 3.4 N 11 20 6 11 1020.2 1019.9 0.0
11/01:30pm 17.3 15.6 11.1 67 3.4 NNW 11 15 6 8 1020.4 1020.1 0.0
11/01:00pm 17.4 15.8 11.7 69 3.1 NNW 11 17 6 9 1020.7 1020.4 0.0
11/12:30pm 16.4 14.7 11.3 72 2.8 NNW 11 17 6 9 1020.8 1020.5 0.0
11/12:00pm 15.6 13.1 11.0 74 2.5 NNW 15 20 8 11 1021.0 1020.7 0.0
11/11:30am 16.2 14.9 10.1 67 3.3 NW 7 13 4 7 1020.8 1020.5 0.0
11/11:00am 15.7 14.3 9.6 67 3.2 NW 7 11 4 6 1020.8 1020.5 0.0
11/10:30am 15.5 14.3 9.4 67 3.2 WSW 6 9 3 5 1020.8 1020.5 0.0
11/10:00am 15.1 13.7 9.0 67 3.2 S 6 11 3 6 1020.7 1020.4 0.0
11/09:30am 15.1 13.9 9.5 69 2.9 SE 6 9 3 5 1020.7 1020.4 0.0
11/09:00am 13.8 12.7 8.4 70 2.7 SSE 4 7 2 4 1020.8 1020.5 0.0
11/08:30am 13.0 11.3 7.7 70 2.6 SE 6 7 3 4 1020.4 1020.1 0.0
11/08:00am 12.6 10.8 8.1 74 2.2 ESE 7 11 4 6 1020.2 1019.9 0.0
11/07:30am 12.3 10.6 8.2 76 2.1 ESE 7 11 4 6 1019.9 1019.6 0.0
11/07:00am 11.9 10.4 8.6 80 1.7 ESE 6 7 3 4 1019.6 1019.3 0.0
11/06:30am 11.7 10.6 8.4 80 1.7 SE 4 6 2 3 1019.5 1019.2 0.0
11/06:00am 11.3 10.4 7.8 79 1.7 SE 2 4 1 2 1019.2 1018.9 0.0
11/05:30am 11.3 9.6 8.3 82 1.5 SE 7 9 4 5 1019.0 1018.8 0.0
11/05:00am 11.4 9.7 8.4 82 1.5 SE 7 9 4 5 1018.8 1018.5 0.0
11/04:30am 11.1 10.7 8.3 83 1.4 CALM 0 0 0 0 1018.6 1018.3 0.0
11/04:00am 11.2 10.1 8.4 83 1.4 SE 4 6 2 3 1018.5 1018.2 0.0
11/03:30am 10.8 9.6 7.9 82 1.4 SE 4 6 2 3 1018.7 1018.4 0.0
11/03:00am 11.1 9.8 7.8 80 1.6 SE 4 6 2 3 1018.7 1018.4 0.0
11/02:30am 11.6 10.3 7.7 77 1.9 SE 4 6 2 3 1018.8 1018.5 0.0
11/02:00am 11.7 10.4 7.6 76 2.0 SE 4 6 2 3 1018.8 1018.5 0.0
11/01:30am 11.7 9.8 7.6 76 2.0 SE 7 9 4 5 1018.8 1018.5 0.0
11/01:00am 11.9 9.6 7.6 75 2.1 SE 9 13 5 7 1018.7 1018.4 0.0
11/12:30am 12.5 9.5 7.8 73 2.3 SE 13 17 7 9 1018.4 1018.1 0.0
11/12:00am 13.2 10.2 7.6 69 2.8 SE 13 17 7 9 1018.5 1018.2 0.0
 
Date/Time
EDT
Temp
°C
App
Temp
°C
Dew
Point
°C
Rel
Hum
%
Delta-T
°C
Wind Press
QNH
hPa
Press
MSL
hPa
Rain since
9am
mm
Dir  Spd
km/h
Gust
km/h
Spd
kts
Gust
kts
10/11:30pm 13.1 9.6 7.1 67 3.0 SE 15 17 8 9 1018.3 1018.0 0.0
10/11:00pm 13.7 11.4 5.6 58 3.9 SE 7 9 4 5 1018.0 1017.7 0.0
10/10:30pm 13.2 11.4 5.6 60 3.6 ESE 4 6 2 3 1017.9 1017.6 0.0
10/10:00pm 14.2 13.1 5.3 55 4.2 CALM 0 2 0 1 1017.7 1017.4 0.0
10/09:30pm 14.4 12.0 5.2 54 4.4 WSW 7 11 4 6 1017.0 1016.7 0.0
10/09:00pm 14.7 11.6 5.5 54 4.4 WSW 11 13 6 7 1016.5 1016.2 0.0
10/08:30pm 16.3 13.6 5.6 49 5.2 W 9 11 5 6 1016.1 1015.7 0.0
10/08:00pm 17.7 14.6 5.6 45 6.0 WSW 11 19 6 10 1015.6 1015.2 0.0
10/07:30pm 18.8 14.6 5.6 42 6.6 WSW 17 26 9 14 1015.1 1014.8 0.0
10/07:00pm 19.7 15.5 5.7 40 7.0 WSW 17 22 9 12 1014.8 1014.5 0.0
10/06:30pm 20.1 15.9 5.7 39 7.2 WSW 17 26 9 14 1014.6 1014.3 0.0
10/06:00pm 20.5 16.3 5.7 38 7.5 WSW 17 24 9 13 1014.2 1013.9 0.0
10/05:30pm 20.8 16.7 6.0 38 7.5 WSW 17 26 9 14 1014.0 1013.7 0.0
10/05:00pm 20.8 17.3 7.1 41 7.1 WSW 15 22 8 12 1014.3 1014.0 0.0
10/04:30pm 20.5 17.1 6.1 39 7.3 SW 13 24 7 13 1014.5 1014.2 0.0
10/04:00pm 20.4 16.1 7.7 44 6.6 W 20 28 11 15 1014.6 1014.3 0.0

Other Formats:

Comma delimited format used in spreadsheet applications
http://www.bom.gov.au/fwo/IDT60801/IDT60801.94955.axf

JavaScript Object Notation format (JSON) in row-major order
http://www.bom.gov.au/fwo/IDT60801/IDT60801.94955.json